sensor_id;sensor_type;location;lat;lon;timestamp;P1;durP1;ratioP1;P2;durP2;ratioP2
50219;SDS011;36110;51.536;7.562;2024-03-07T00:00:27;22.75;;;16.35;;
50219;SDS011;36110;51.536;7.562;2024-03-07T00:02:53;25.67;;;16.40;;
50219;SDS011;36110;51.536;7.562;2024-03-07T00:05:19;23.35;;;16.52;;
50219;SDS011;36110;51.536;7.562;2024-03-07T00:07:46;25.63;;;16.00;;
50219;SDS011;36110;51.536;7.562;2024-03-07T00:10:12;31.23;;;21.00;;
50219;SDS011;36110;51.536;7.562;2024-03-07T00:12:38;22.73;;;15.55;;
50219;SDS011;36110;51.536;7.562;2024-03-07T00:15:06;23.50;;;16.70;;
50219;SDS011;36110;51.536;7.562;2024-03-07T00:17:32;22.95;;;16.08;;
50219;SDS011;36110;51.536;7.562;2024-03-07T00:19:58;24.13;;;15.60;;
50219;SDS011;36110;51.536;7.562;2024-03-07T00:22:23;21.58;;;15.35;;
50219;SDS011;36110;51.536;7.562;2024-03-07T00:24:51;21.20;;;15.10;;
50219;SDS011;36110;51.536;7.562;2024-03-07T00:27:17;21.60;;;14.80;;
50219;SDS011;36110;51.536;7.562;2024-03-07T00:29:42;26.40;;;16.73;;
50219;SDS011;36110;51.536;7.562;2024-03-07T00:32:08;20.88;;;14.98;;
50219;SDS011;36110;51.536;7.562;2024-03-07T00:34:33;21.73;;;16.05;;
50219;SDS011;36110;51.536;7.562;2024-03-07T00:36:59;21.17;;;15.07;;
50219;SDS011;36110;51.536;7.562;2024-03-07T00:39:25;21.10;;;15.10;;
50219;SDS011;36110;51.536;7.562;2024-03-07T00:41:51;18.40;;;14.20;;
50219;SDS011;36110;51.536;7.562;2024-03-07T00:44:16;20.23;;;14.43;;
50219;SDS011;36110;51.536;7.562;2024-03-07T00:46:42;21.38;;;14.68;;
50219;SDS011;36110;51.536;7.562;2024-03-07T00:49:07;21.77;;;14.98;;
50219;SDS011;36110;51.536;7.562;2024-03-07T00:51:32;19.75;;;13.65;;
50219;SDS011;36110;51.536;7.562;2024-03-07T00:53:58;19.48;;;13.95;;
50219;SDS011;36110;51.536;7.562;2024-03-07T00:56:23;19.45;;;13.55;;
50219;SDS011;36110;51.536;7.562;2024-03-07T00:58:50;19.58;;;14.02;;
50219;SDS011;36110;51.536;7.562;2024-03-07T01:01:15;19.25;;;13.68;;
50219;SDS011;36110;51.536;7.562;2024-03-07T01:03:42;19.98;;;14.23;;
50219;SDS011;36110;51.536;7.562;2024-03-07T01:06:08;20.80;;;14.75;;
50219;SDS011;36110;51.536;7.562;2024-03-07T01:08:35;26.40;;;18.98;;
50219;SDS011;36110;51.536;7.562;2024-03-07T01:11:01;20.48;;;14.82;;
50219;SDS011;36110;51.536;7.562;2024-03-07T01:13:34;19.92;;;13.73;;
50219;SDS011;36110;51.536;7.562;2024-03-07T01:16:00;19.75;;;14.18;;
50219;SDS011;36110;51.536;7.562;2024-03-07T01:18:25;19.08;;;14.05;;
50219;SDS011;36110;51.536;7.562;2024-03-07T01:20:51;26.23;;;16.70;;
50219;SDS011;36110;51.536;7.562;2024-03-07T01:23:16;22.17;;;14.73;;
50219;SDS011;36110;51.536;7.562;2024-03-07T01:25:42;19.10;;;13.55;;
50219;SDS011;36110;51.536;7.562;2024-03-07T01:28:07;28.70;;;18.25;;
50219;SDS011;36110;51.536;7.562;2024-03-07T01:30:37;56.22;;;19.02;;
50219;SDS011;36110;51.536;7.562;2024-03-07T01:33:02;20.60;;;14.18;;
50219;SDS011;36110;51.536;7.562;2024-03-07T01:35:28;20.73;;;14.35;;
50219;SDS011;36110;51.536;7.562;2024-03-07T01:37:53;24.85;;;15.82;;
50219;SDS011;36110;51.536;7.562;2024-03-07T01:40:19;19.17;;;12.40;;
50219;SDS011;36110;51.536;7.562;2024-03-07T01:42:46;18.00;;;12.93;;
50219;SDS011;36110;51.536;7.562;2024-03-07T01:45:13;18.92;;;13.85;;
50219;SDS011;36110;51.536;7.562;2024-03-07T01:47:38;19.13;;;13.90;;
50219;SDS011;36110;51.536;7.562;2024-03-07T01:50:04;19.42;;;13.65;;
50219;SDS011;36110;51.536;7.562;2024-03-07T01:52:30;18.77;;;13.48;;
50219;SDS011;36110;51.536;7.562;2024-03-07T01:54:56;18.65;;;13.18;;
50219;SDS011;36110;51.536;7.562;2024-03-07T01:57:21;16.38;;;12.38;;
50219;SDS011;36110;51.536;7.562;2024-03-07T01:59:47;18.42;;;13.50;;
50219;SDS011;36110;51.536;7.562;2024-03-07T02:02:13;19.25;;;13.70;;
50219;SDS011;36110;51.536;7.562;2024-03-07T02:04:38;23.13;;;13.57;;
50219;SDS011;36110;51.536;7.562;2024-03-07T02:07:04;19.05;;;12.70;;
50219;SDS011;36110;51.536;7.562;2024-03-07T02:09:29;25.52;;;14.02;;
50219;SDS011;36110;51.536;7.562;2024-03-07T02:11:54;21.52;;;14.52;;
50219;SDS011;36110;51.536;7.562;2024-03-07T02:14:21;17.00;;;12.10;;
50219;SDS011;36110;51.536;7.562;2024-03-07T02:16:46;16.15;;;11.70;;
50219;SDS011;36110;51.536;7.562;2024-03-07T02:19:13;30.42;;;16.88;;
50219;SDS011;36110;51.536;7.562;2024-03-07T02:21:39;18.35;;;12.48;;
50219;SDS011;36110;51.536;7.562;2024-03-07T02:24:05;24.83;;;15.15;;
50219;SDS011;36110;51.536;7.562;2024-03-07T02:26:30;28.33;;;16.60;;
50219;SDS011;36110;51.536;7.562;2024-03-07T02:28:56;17.75;;;12.60;;
50219;SDS011;36110;51.536;7.562;2024-03-07T02:31:21;25.33;;;17.00;;
50219;SDS011;36110;51.536;7.562;2024-03-07T02:33:53;25.17;;;17.23;;
50219;SDS011;36110;51.536;7.562;2024-03-07T02:36:18;19.95;;;14.60;;
50219;SDS011;36110;51.536;7.562;2024-03-07T02:38:44;18.77;;;13.25;;
50219;SDS011;36110;51.536;7.562;2024-03-07T02:41:09;23.67;;;16.70;;
50219;SDS011;36110;51.536;7.562;2024-03-07T02:43:34;17.73;;;11.95;;
50219;SDS011;36110;51.536;7.562;2024-03-07T02:46:03;19.10;;;12.95;;
50219;SDS011;36110;51.536;7.562;2024-03-07T02:48:28;14.65;;;11.80;;
50219;SDS011;36110;51.536;7.562;2024-03-07T02:50:55;20.42;;;14.15;;
50219;SDS011;36110;51.536;7.562;2024-03-07T02:53:21;15.43;;;11.57;;
50219;SDS011;36110;51.536;7.562;2024-03-07T02:55:46;15.48;;;11.20;;
50219;SDS011;36110;51.536;7.562;2024-03-07T02:58:11;15.52;;;11.40;;
50219;SDS011;36110;51.536;7.562;2024-03-07T03:00:37;16.52;;;11.90;;
50219;SDS011;36110;51.536;7.562;2024-03-07T03:03:02;15.75;;;11.90;;
50219;SDS011;36110;51.536;7.562;2024-03-07T03:05:28;17.23;;;11.93;;
50219;SDS011;36110;51.536;7.562;2024-03-07T03:07:53;15.07;;;11.35;;
50219;SDS011;36110;51.536;7.562;2024-03-07T03:10:20;14.68;;;11.20;;
50219;SDS011;36110;51.536;7.562;2024-03-07T03:12:57;13.10;;;10.23;;
50219;SDS011;36110;51.536;7.562;2024-03-07T03:15:26;16.27;;;11.20;;
50219;SDS011;36110;51.536;7.562;2024-03-07T03:17:51;14.95;;;10.88;;
50219;SDS011;36110;51.536;7.562;2024-03-07T03:20:17;15.70;;;11.60;;
50219;SDS011;36110;51.536;7.562;2024-03-07T03:22:58;16.55;;;11.55;;
50219;SDS011;36110;51.536;7.562;2024-03-07T03:25:24;13.75;;;10.65;;
50219;SDS011;36110;51.536;7.562;2024-03-07T03:27:49;16.75;;;12.32;;
50219;SDS011;36110;51.536;7.562;2024-03-07T03:30:15;14.75;;;11.02;;
50219;SDS011;36110;51.536;7.562;2024-03-07T03:32:45;14.68;;;11.55;;
50219;SDS011;36110;51.536;7.562;2024-03-07T03:35:12;15.55;;;11.38;;
50219;SDS011;36110;51.536;7.562;2024-03-07T03:37:41;16.17;;;11.55;;
50219;SDS011;36110;51.536;7.562;2024-03-07T03:40:07;20.60;;;13.57;;
50219;SDS011;36110;51.536;7.562;2024-03-07T03:42:34;16.73;;;12.32;;
50219;SDS011;36110;51.536;7.562;2024-03-07T03:45:03;18.92;;;12.88;;
50219;SDS011;36110;51.536;7.562;2024-03-07T03:47:36;13.50;;;10.60;;
50219;SDS011;36110;51.536;7.562;2024-03-07T03:50:05;14.63;;;10.65;;
50219;SDS011;36110;51.536;7.562;2024-03-07T03:52:32;15.85;;;10.98;;
50219;SDS011;36110;51.536;7.562;2024-03-07T03:54:58;22.00;;;16.25;;
50219;SDS011;36110;51.536;7.562;2024-03-07T03:57:24;12.43;;;9.82;;
50219;SDS011;36110;51.536;7.562;2024-03-07T03:59:50;14.23;;;10.52;;
50219;SDS011;36110;51.536;7.562;2024-03-07T04:02:15;17.27;;;11.65;;
50219;SDS011;36110;51.536;7.562;2024-03-07T04:04:42;15.52;;;10.70;;
50219;SDS011;36110;51.536;7.562;2024-03-07T04:07:07;15.70;;;11.18;;
50219;SDS011;36110;51.536;7.562;2024-03-07T04:09:32;14.70;;;11.60;;
50219;SDS011;36110;51.536;7.562;2024-03-07T04:11:58;14.70;;;11.05;;
50219;SDS011;36110;51.536;7.562;2024-03-07T04:14:24;13.88;;;10.65;;
50219;SDS011;36110;51.536;7.562;2024-03-07T04:16:50;14.27;;;10.00;;
50219;SDS011;36110;51.536;7.562;2024-03-07T04:19:15;12.95;;;10.18;;
50219;SDS011;36110;51.536;7.562;2024-03-07T04:21:40;13.25;;;10.25;;
50219;SDS011;36110;51.536;7.562;2024-03-07T04:24:06;15.38;;;10.45;;
50219;SDS011;36110;51.536;7.562;2024-03-07T04:26:32;14.60;;;10.15;;
50219;SDS011;36110;51.536;7.562;2024-03-07T04:28:57;14.30;;;10.40;;
50219;SDS011;36110;51.536;7.562;2024-03-07T04:31:23;14.98;;;11.18;;
50219;SDS011;36110;51.536;7.562;2024-03-07T04:33:48;17.77;;;13.32;;
50219;SDS011;36110;51.536;7.562;2024-03-07T04:36:14;16.25;;;12.20;;
50219;SDS011;36110;51.536;7.562;2024-03-07T04:38:39;18.20;;;12.70;;
50219;SDS011;36110;51.536;7.562;2024-03-07T04:41:10;12.88;;;9.80;;
50219;SDS011;36110;51.536;7.562;2024-03-07T04:43:36;18.83;;;13.80;;
50219;SDS011;36110;51.536;7.562;2024-03-07T04:46:01;14.70;;;10.07;;
50219;SDS011;36110;51.536;7.562;2024-03-07T04:48:26;15.07;;;11.32;;
50219;SDS011;36110;51.536;7.562;2024-03-07T04:50:52;15.65;;;10.70;;
50219;SDS011;36110;51.536;7.562;2024-03-07T04:53:17;12.75;;;9.75;;
50219;SDS011;36110;51.536;7.562;2024-03-07T04:55:42;12.95;;;9.32;;
50219;SDS011;36110;51.536;7.562;2024-03-07T04:58:08;14.55;;;11.40;;
50219;SDS011;36110;51.536;7.562;2024-03-07T05:00:34;16.80;;;12.48;;
50219;SDS011;36110;51.536;7.562;2024-03-07T05:02:59;14.38;;;10.80;;
50219;SDS011;36110;51.536;7.562;2024-03-07T05:05:24;14.50;;;10.80;;
50219;SDS011;36110;51.536;7.562;2024-03-07T05:07:51;13.57;;;10.00;;
50219;SDS011;36110;51.536;7.562;2024-03-07T05:10:17;13.10;;;10.30;;
50219;SDS011;36110;51.536;7.562;2024-03-07T05:12:42;21.95;;;15.50;;
50219;SDS011;36110;51.536;7.562;2024-03-07T05:15:07;14.23;;;10.52;;
50219;SDS011;36110;51.536;7.562;2024-03-07T05:17:36;11.93;;;9.35;;
50219;SDS011;36110;51.536;7.562;2024-03-07T05:20:03;13.93;;;9.77;;
50219;SDS011;36110;51.536;7.562;2024-03-07T05:22:34;12.80;;;9.07;;
50219;SDS011;36110;51.536;7.562;2024-03-07T05:25:00;11.50;;;9.15;;
50219;SDS011;36110;51.536;7.562;2024-03-07T05:27:25;12.38;;;9.60;;
50219;SDS011;36110;51.536;7.562;2024-03-07T05:29:52;11.88;;;9.10;;
50219;SDS011;36110;51.536;7.562;2024-03-07T05:32:24;14.30;;;9.27;;
50219;SDS011;36110;51.536;7.562;2024-03-07T05:34:53;11.52;;;8.98;;
50219;SDS011;36110;51.536;7.562;2024-03-07T05:37:22;11.60;;;8.93;;
50219;SDS011;36110;51.536;7.562;2024-03-07T05:39:47;11.70;;;8.88;;
50219;SDS011;36110;51.536;7.562;2024-03-07T05:42:13;10.57;;;8.35;;
50219;SDS011;36110;51.536;7.562;2024-03-07T05:44:39;12.40;;;9.02;;
50219;SDS011;36110;51.536;7.562;2024-03-07T05:47:06;11.40;;;8.75;;
50219;SDS011;36110;51.536;7.562;2024-03-07T05:49:32;11.30;;;8.75;;
50219;SDS011;36110;51.536;7.562;2024-03-07T05:51:58;13.18;;;9.75;;
50219;SDS011;36110;51.536;7.562;2024-03-07T05:54:23;12.13;;;9.20;;
50219;SDS011;36110;51.536;7.562;2024-03-07T05:56:48;15.63;;;10.23;;
50219;SDS011;36110;51.536;7.562;2024-03-07T05:59:15;12.32;;;8.90;;
50219;SDS011;36110;51.536;7.562;2024-03-07T06:01:42;16.63;;;12.52;;
50219;SDS011;36110;51.536;7.562;2024-03-07T06:04:07;16.63;;;11.63;;
50219;SDS011;36110;51.536;7.562;2024-03-07T06:06:36;22.45;;;15.45;;
50219;SDS011;36110;51.536;7.562;2024-03-07T06:09:02;13.68;;;9.43;;
50219;SDS011;36110;51.536;7.562;2024-03-07T06:11:35;14.45;;;10.43;;
50219;SDS011;36110;51.536;7.562;2024-03-07T06:14:02;12.32;;;9.23;;
50219;SDS011;36110;51.536;7.562;2024-03-07T06:16:31;11.07;;;8.13;;
50219;SDS011;36110;51.536;7.562;2024-03-07T06:18:59;18.88;;;14.05;;
50219;SDS011;36110;51.536;7.562;2024-03-07T06:21:26;18.52;;;13.80;;
50219;SDS011;36110;51.536;7.562;2024-03-07T06:23:51;19.15;;;14.05;;
50219;SDS011;36110;51.536;7.562;2024-03-07T06:26:24;21.30;;;14.70;;
50219;SDS011;36110;51.536;7.562;2024-03-07T06:29:13;30.73;;;21.58;;
50219;SDS011;36110;51.536;7.562;2024-03-07T06:31:41;23.50;;;16.38;;
50219;SDS011;36110;51.536;7.562;2024-03-07T06:34:06;33.00;;;20.27;;
50219;SDS011;36110;51.536;7.562;2024-03-07T06:36:33;25.83;;;19.27;;
50219;SDS011;36110;51.536;7.562;2024-03-07T06:38:58;22.77;;;14.82;;
50219;SDS011;36110;51.536;7.562;2024-03-07T06:41:24;21.30;;;14.98;;
50219;SDS011;36110;51.536;7.562;2024-03-07T06:43:50;38.15;;;28.00;;
50219;SDS011;36110;51.536;7.562;2024-03-07T06:46:16;51.35;;;33.42;;
50219;SDS011;36110;51.536;7.562;2024-03-07T06:48:41;47.30;;;32.28;;
50219;SDS011;36110;51.536;7.562;2024-03-07T06:51:07;44.33;;;29.73;;
50219;SDS011;36110;51.536;7.562;2024-03-07T06:53:33;46.30;;;30.88;;
50219;SDS011;36110;51.536;7.562;2024-03-07T06:55:58;47.83;;;31.15;;
50219;SDS011;36110;51.536;7.562;2024-03-07T06:58:24;44.90;;;29.65;;
50219;SDS011;36110;51.536;7.562;2024-03-07T07:00:51;53.83;;;34.75;;
50219;SDS011;36110;51.536;7.562;2024-03-07T07:03:18;58.17;;;38.05;;
50219;SDS011;36110;51.536;7.562;2024-03-07T07:05:45;60.05;;;35.75;;
50219;SDS011;36110;51.536;7.562;2024-03-07T07:08:10;52.90;;;32.80;;
50219;SDS011;36110;51.536;7.562;2024-03-07T07:10:36;44.70;;;31.38;;
50219;SDS011;36110;51.536;7.562;2024-03-07T07:13:02;41.47;;;28.80;;
50219;SDS011;36110;51.536;7.562;2024-03-07T07:15:29;41.28;;;28.33;;
50219;SDS011;36110;51.536;7.562;2024-03-07T07:17:55;38.58;;;28.48;;
50219;SDS011;36110;51.536;7.562;2024-03-07T07:20:20;41.90;;;28.58;;
50219;SDS011;36110;51.536;7.562;2024-03-07T07:22:46;38.45;;;26.83;;
50219;SDS011;36110;51.536;7.562;2024-03-07T07:25:15;37.85;;;25.80;;
50219;SDS011;36110;51.536;7.562;2024-03-07T07:27:43;38.17;;;25.63;;
50219;SDS011;36110;51.536;7.562;2024-03-07T07:30:09;34.60;;;25.10;;
50219;SDS011;36110;51.536;7.562;2024-03-07T07:32:35;35.30;;;24.88;;
50219;SDS011;36110;51.536;7.562;2024-03-07T07:35:01;33.65;;;24.73;;
50219;SDS011;36110;51.536;7.562;2024-03-07T07:37:27;34.65;;;25.13;;
50219;SDS011;36110;51.536;7.562;2024-03-07T07:39:52;34.83;;;25.00;;
50219;SDS011;36110;51.536;7.562;2024-03-07T07:42:17;47.33;;;27.77;;
50219;SDS011;36110;51.536;7.562;2024-03-07T07:44:43;36.35;;;26.77;;
50219;SDS011;36110;51.536;7.562;2024-03-07T07:47:08;45.30;;;29.80;;
50219;SDS011;36110;51.536;7.562;2024-03-07T07:49:35;46.17;;;32.58;;
50219;SDS011;36110;51.536;7.562;2024-03-07T07:52:01;42.17;;;31.10;;
50219;SDS011;36110;51.536;7.562;2024-03-07T07:54:26;47.60;;;32.13;;
50219;SDS011;36110;51.536;7.562;2024-03-07T07:56:52;53.65;;;32.78;;
50219;SDS011;36110;51.536;7.562;2024-03-07T07:59:17;52.80;;;35.65;;
50219;SDS011;36110;51.536;7.562;2024-03-07T08:01:42;56.50;;;37.17;;
50219;SDS011;36110;51.536;7.562;2024-03-07T08:04:08;61.10;;;37.97;;
50219;SDS011;36110;51.536;7.562;2024-03-07T08:06:34;59.03;;;37.85;;
50219;SDS011;36110;51.536;7.562;2024-03-07T08:09:00;49.25;;;33.33;;
50219;SDS011;36110;51.536;7.562;2024-03-07T08:11:25;41.53;;;30.20;;
50219;SDS011;36110;51.536;7.562;2024-03-07T08:13:51;52.75;;;34.47;;
50219;SDS011;36110;51.536;7.562;2024-03-07T08:16:16;48.58;;;32.60;;
50219;SDS011;36110;51.536;7.562;2024-03-07T08:18:42;42.38;;;29.20;;
50219;SDS011;36110;51.536;7.562;2024-03-07T08:21:07;44.50;;;30.73;;
50219;SDS011;36110;51.536;7.562;2024-03-07T08:23:35;50.15;;;33.17;;
50219;SDS011;36110;51.536;7.562;2024-03-07T08:26:01;44.17;;;31.38;;
50219;SDS011;36110;51.536;7.562;2024-03-07T08:28:27;39.22;;;27.42;;
50219;SDS011;36110;51.536;7.562;2024-03-07T08:30:52;40.60;;;29.38;;
50219;SDS011;36110;51.536;7.562;2024-03-07T08:33:18;48.30;;;32.65;;
50219;SDS011;36110;51.536;7.562;2024-03-07T08:35:46;38.15;;;27.20;;
50219;SDS011;36110;51.536;7.562;2024-03-07T08:38:12;49.10;;;33.00;;
50219;SDS011;36110;51.536;7.562;2024-03-07T08:40:37;48.50;;;33.88;;
50219;SDS011;36110;51.536;7.562;2024-03-07T08:43:03;53.13;;;34.63;;
50219;SDS011;36110;51.536;7.562;2024-03-07T08:45:29;37.95;;;27.77;;
50219;SDS011;36110;51.536;7.562;2024-03-07T08:47:58;39.97;;;27.05;;
50219;SDS011;36110;51.536;7.562;2024-03-07T08:50:23;38.55;;;27.83;;
50219;SDS011;36110;51.536;7.562;2024-03-07T08:52:51;37.30;;;25.73;;
50219;SDS011;36110;51.536;7.562;2024-03-07T08:55:18;43.63;;;31.15;;
50219;SDS011;36110;51.536;7.562;2024-03-07T08:57:44;44.28;;;29.95;;
50219;SDS011;36110;51.536;7.562;2024-03-07T09:00:14;45.17;;;31.05;;
50219;SDS011;36110;51.536;7.562;2024-03-07T09:05:24;44.63;;;30.13;;
50219;SDS011;36110;51.536;7.562;2024-03-07T09:07:53;41.38;;;28.98;;
50219;SDS011;36110;51.536;7.562;2024-03-07T09:10:19;48.22;;;32.00;;
50219;SDS011;36110;51.536;7.562;2024-03-07T09:12:44;47.63;;;30.23;;
50219;SDS011;36110;51.536;7.562;2024-03-07T09:15:10;42.92;;;28.63;;
50219;SDS011;36110;51.536;7.562;2024-03-07T09:17:36;39.47;;;28.00;;
50219;SDS011;36110;51.536;7.562;2024-03-07T09:20:02;39.47;;;28.83;;
50219;SDS011;36110;51.536;7.562;2024-03-07T09:22:30;41.47;;;28.90;;
50219;SDS011;36110;51.536;7.562;2024-03-07T09:24:56;35.97;;;27.08;;
50219;SDS011;36110;51.536;7.562;2024-03-07T09:27:22;39.85;;;28.52;;
50219;SDS011;36110;51.536;7.562;2024-03-07T09:29:47;38.78;;;29.15;;
50219;SDS011;36110;51.536;7.562;2024-03-07T09:32:13;41.20;;;28.42;;
50219;SDS011;36110;51.536;7.562;2024-03-07T09:34:39;37.42;;;26.33;;
50219;SDS011;36110;51.536;7.562;2024-03-07T09:37:04;37.30;;;27.40;;
50219;SDS011;36110;51.536;7.562;2024-03-07T09:39:32;36.10;;;26.38;;
50219;SDS011;36110;51.536;7.562;2024-03-07T09:41:59;37.30;;;26.50;;
50219;SDS011;36110;51.536;7.562;2024-03-07T09:44:26;36.13;;;26.13;;
50219;SDS011;36110;51.536;7.562;2024-03-07T09:46:54;36.55;;;26.88;;
50219;SDS011;36110;51.536;7.562;2024-03-07T09:49:20;34.55;;;24.70;;
50219;SDS011;36110;51.536;7.562;2024-03-07T09:51:47;35.60;;;25.65;;
50219;SDS011;36110;51.536;7.562;2024-03-07T09:54:12;37.35;;;25.10;;
50219;SDS011;36110;51.536;7.562;2024-03-07T09:56:39;34.50;;;24.63;;
50219;SDS011;36110;51.536;7.562;2024-03-07T09:59:06;36.17;;;25.60;;
50219;SDS011;36110;51.536;7.562;2024-03-07T10:01:37;34.90;;;25.30;;
50219;SDS011;36110;51.536;7.562;2024-03-07T10:04:02;33.75;;;24.55;;
50219;SDS011;36110;51.536;7.562;2024-03-07T10:06:40;34.88;;;24.67;;
50219;SDS011;36110;51.536;7.562;2024-03-07T10:09:09;36.42;;;25.15;;
50219;SDS011;36110;51.536;7.562;2024-03-07T10:11:38;31.55;;;23.85;;
50219;SDS011;36110;51.536;7.562;2024-03-07T10:14:03;35.63;;;25.42;;
50219;SDS011;36110;51.536;7.562;2024-03-07T10:16:29;35.03;;;25.52;;
50219;SDS011;36110;51.536;7.562;2024-03-07T10:18:55;35.88;;;25.85;;
50219;SDS011;36110;51.536;7.562;2024-03-07T10:21:20;34.92;;;25.13;;
50219;SDS011;36110;51.536;7.562;2024-03-07T10:23:47;34.97;;;25.02;;
50219;SDS011;36110;51.536;7.562;2024-03-07T10:26:12;32.53;;;21.58;;
50219;SDS011;36110;51.536;7.562;2024-03-07T10:28:38;35.60;;;25.27;;
50219;SDS011;36110;51.536;7.562;2024-03-07T10:31:03;33.88;;;23.95;;
50219;SDS011;36110;51.536;7.562;2024-03-07T10:33:34;33.03;;;24.40;;
50219;SDS011;36110;51.536;7.562;2024-03-07T10:35:59;37.30;;;24.35;;
50219;SDS011;36110;51.536;7.562;2024-03-07T10:38:25;35.08;;;23.73;;
50219;SDS011;36110;51.536;7.562;2024-03-07T10:40:54;35.05;;;24.88;;
50219;SDS011;36110;51.536;7.562;2024-03-07T10:43:20;33.83;;;24.38;;
50219;SDS011;36110;51.536;7.562;2024-03-07T10:45:47;32.40;;;23.20;;
50219;SDS011;36110;51.536;7.562;2024-03-07T10:48:13;36.63;;;25.00;;
50219;SDS011;36110;51.536;7.562;2024-03-07T10:53:14;34.50;;;24.88;;
50219;SDS011;36110;51.536;7.562;2024-03-07T10:56:01;29.50;;;21.27;;
50219;SDS011;36110;51.536;7.562;2024-03-07T11:04:19;30.75;;;23.23;;
50219;SDS011;36110;51.536;7.562;2024-03-07T11:06:47;32.85;;;23.13;;
50219;SDS011;36110;51.536;7.562;2024-03-07T11:09:14;32.08;;;22.13;;
50219;SDS011;36110;51.536;7.562;2024-03-07T11:11:47;31.40;;;23.10;;
50219;SDS011;36110;51.536;7.562;2024-03-07T11:14:13;23.92;;;19.10;;
50219;SDS011;36110;51.536;7.562;2024-03-07T11:16:41;34.38;;;24.13;;
50219;SDS011;36110;51.536;7.562;2024-03-07T11:19:19;32.95;;;22.98;;
50219;SDS011;36110;51.536;7.562;2024-03-07T11:21:48;31.35;;;22.92;;
50219;SDS011;36110;51.536;7.562;2024-03-07T11:24:27;34.10;;;23.10;;
50219;SDS011;36110;51.536;7.562;2024-03-07T11:26:58;26.02;;;20.33;;
50219;SDS011;36110;51.536;7.562;2024-03-07T11:32:12;30.38;;;21.90;;
50219;SDS011;36110;51.536;7.562;2024-03-07T11:34:39;32.22;;;22.83;;
50219;SDS011;36110;51.536;7.562;2024-03-07T11:37:10;30.83;;;22.05;;
50219;SDS011;36110;51.536;7.562;2024-03-07T11:39:48;24.67;;;19.33;;
50219;SDS011;36110;51.536;7.562;2024-03-07T11:42:36;30.15;;;21.27;;
50219;SDS011;36110;51.536;7.562;2024-03-07T11:45:02;26.45;;;20.70;;
50219;SDS011;36110;51.536;7.562;2024-03-07T11:47:37;31.90;;;22.33;;
50219;SDS011;36110;51.536;7.562;2024-03-07T11:50:04;26.98;;;20.42;;
50219;SDS011;36110;51.536;7.562;2024-03-07T11:52:33;26.88;;;19.05;;
50219;SDS011;36110;51.536;7.562;2024-03-07T11:55:02;26.45;;;20.20;;
50219;SDS011;36110;51.536;7.562;2024-03-07T11:57:30;23.23;;;17.73;;
50219;SDS011;36110;51.536;7.562;2024-03-07T11:59:59;27.05;;;19.60;;
50219;SDS011;36110;51.536;7.562;2024-03-07T12:02:33;23.38;;;18.08;;
50219;SDS011;36110;51.536;7.562;2024-03-07T12:04:58;24.05;;;18.73;;
50219;SDS011;36110;51.536;7.562;2024-03-07T12:07:24;24.98;;;17.98;;
50219;SDS011;36110;51.536;7.562;2024-03-07T12:09:49;25.80;;;18.77;;
50219;SDS011;36110;51.536;7.562;2024-03-07T12:12:21;24.17;;;17.65;;
50219;SDS011;36110;51.536;7.562;2024-03-07T12:14:47;24.00;;;18.02;;
50219;SDS011;36110;51.536;7.562;2024-03-07T12:17:13;22.95;;;17.73;;
50219;SDS011;36110;51.536;7.562;2024-03-07T12:19:40;23.40;;;16.75;;
50219;SDS011;36110;51.536;7.562;2024-03-07T12:22:08;22.17;;;17.13;;
50219;SDS011;36110;51.536;7.562;2024-03-07T12:24:40;19.98;;;16.33;;
50219;SDS011;36110;51.536;7.562;2024-03-07T12:27:10;21.90;;;16.08;;
50219;SDS011;36110;51.536;7.562;2024-03-07T12:29:36;24.27;;;16.20;;
50219;SDS011;36110;51.536;7.562;2024-03-07T12:32:04;21.58;;;14.93;;
50219;SDS011;36110;51.536;7.562;2024-03-07T12:34:31;19.30;;;14.73;;
50219;SDS011;36110;51.536;7.562;2024-03-07T12:37:01;16.50;;;13.32;;
50219;SDS011;36110;51.536;7.562;2024-03-07T12:39:27;18.48;;;14.27;;
50219;SDS011;36110;51.536;7.562;2024-03-07T12:41:58;21.50;;;14.95;;
50219;SDS011;36110;51.536;7.562;2024-03-07T12:44:23;19.13;;;14.98;;
50219;SDS011;36110;51.536;7.562;2024-03-07T12:46:50;21.20;;;15.27;;
50219;SDS011;36110;51.536;7.562;2024-03-07T12:49:19;19.55;;;14.32;;
50219;SDS011;36110;51.536;7.562;2024-03-07T12:51:44;22.55;;;15.60;;
50219;SDS011;36110;51.536;7.562;2024-03-07T12:54:09;21.70;;;15.68;;
50219;SDS011;36110;51.536;7.562;2024-03-07T12:56:35;20.65;;;14.98;;
50219;SDS011;36110;51.536;7.562;2024-03-07T12:59:05;22.23;;;15.52;;
50219;SDS011;36110;51.536;7.562;2024-03-07T13:01:34;19.50;;;13.80;;
50219;SDS011;36110;51.536;7.562;2024-03-07T13:04:02;19.45;;;13.27;;
50219;SDS011;36110;51.536;7.562;2024-03-07T13:06:29;19.48;;;13.55;;
50219;SDS011;36110;51.536;7.562;2024-03-07T13:08:55;25.98;;;13.57;;
50219;SDS011;36110;51.536;7.562;2024-03-07T13:11:23;20.05;;;12.85;;
50219;SDS011;36110;51.536;7.562;2024-03-07T13:13:49;18.13;;;13.35;;
50219;SDS011;36110;51.536;7.562;2024-03-07T13:16:14;19.83;;;13.95;;
50219;SDS011;36110;51.536;7.562;2024-03-07T13:18:39;33.92;;;14.57;;
50219;SDS011;36110;51.536;7.562;2024-03-07T13:21:05;18.10;;;12.55;;
50219;SDS011;36110;51.536;7.562;2024-03-07T13:23:31;18.52;;;12.88;;
50219;SDS011;36110;51.536;7.562;2024-03-07T13:25:58;114.43;;;23.67;;
50219;SDS011;36110;51.536;7.562;2024-03-07T13:28:25;20.10;;;11.98;;
50219;SDS011;36110;51.536;7.562;2024-03-07T13:30:51;19.67;;;12.05;;
50219;SDS011;36110;51.536;7.562;2024-03-07T13:33:19;16.73;;;11.20;;
50219;SDS011;36110;51.536;7.562;2024-03-07T13:35:44;20.55;;;11.38;;
50219;SDS011;36110;51.536;7.562;2024-03-07T13:38:10;32.92;;;13.35;;
50219;SDS011;36110;51.536;7.562;2024-03-07T13:40:35;18.83;;;11.10;;
50219;SDS011;36110;51.536;7.562;2024-03-07T13:43:03;25.08;;;12.68;;
50219;SDS011;36110;51.536;7.562;2024-03-07T13:45:30;19.15;;;12.80;;
50219;SDS011;36110;51.536;7.562;2024-03-07T13:47:56;144.50;;;25.75;;
50219;SDS011;36110;51.536;7.562;2024-03-07T13:50:23;25.13;;;13.02;;
50219;SDS011;36110;51.536;7.562;2024-03-07T13:52:55;38.88;;;14.68;;
50219;SDS011;36110;51.536;7.562;2024-03-07T13:55:55;19.00;;;12.52;;
50219;SDS011;36110;51.536;7.562;2024-03-07T14:01:04;21.60;;;14.32;;
50219;SDS011;36110;51.536;7.562;2024-03-07T14:26:54;29.20;;;14.48;;
50219;SDS011;36110;51.536;7.562;2024-03-07T14:32:23;25.98;;;14.95;;
50219;SDS011;36110;51.536;7.562;2024-03-07T14:35:03;24.30;;;15.25;;
50219;SDS011;36110;51.536;7.562;2024-03-07T14:38:06;22.77;;;16.10;;
50219;SDS011;36110;51.536;7.562;2024-03-07T14:40:55;24.75;;;16.13;;
50219;SDS011;36110;51.536;7.562;2024-03-07T14:43:20;26.15;;;16.70;;
50219;SDS011;36110;51.536;7.562;2024-03-07T14:45:47;24.35;;;14.80;;
50219;SDS011;36110;51.536;7.562;2024-03-07T14:48:14;22.70;;;15.18;;
50219;SDS011;36110;51.536;7.562;2024-03-07T14:50:44;23.85;;;15.63;;
50219;SDS011;36110;51.536;7.562;2024-03-07T14:53:11;25.85;;;16.80;;
50219;SDS011;36110;51.536;7.562;2024-03-07T14:55:37;24.55;;;15.73;;
50219;SDS011;36110;51.536;7.562;2024-03-07T14:58:04;24.70;;;14.80;;
50219;SDS011;36110;51.536;7.562;2024-03-07T15:00:31;22.17;;;15.98;;
50219;SDS011;36110;51.536;7.562;2024-03-07T15:02:58;26.13;;;15.77;;
50219;SDS011;36110;51.536;7.562;2024-03-07T15:05:24;28.08;;;16.65;;